Amarant — CQSF — position and weather

sailwx.info

Track history (hours):
 
Tides and Currents Weather Stations Pressure Air Temp Water Temp Dewpoint Dewpoint Depression Visibility Wind Speed Wind Dir Waves Ship Positions

Amarant

Last reported at 2016-Jul-23 10:23 UTC. Time now 2016-Jul-23 11:16 UTC.
Position N 55°40' E 006°45'.

Length 123 m; draft 5.3 m.

Type: Tanker. MMSI: 255623000.

Date/timePositionNaut miles runAvg speedWind from/ knotsBaromVisibWave heightAir tempDewpointWater temp
2016-Jul-23 10:23N 55°40' E 006°45'8111.8
2016-Jul-23 03:33N 54°31' E 005°32'1211.5
2016-Jul-23 02:33N 54°21' E 005°22'1211.6
2016-Jul-23 01:33N 54°11' E 005°12'1211.7
2016-Jul-23 00:33N 54°00' E 005°05'1211.8
2016-Jul-22 23:31N 53°49' E 004°58'1312.1
2016-Jul-22 22:28N 53°37' E 004°50'1611.7
2016-Jul-22 21:05N 53°22' E 004°40'813.5
2016-Jul-22 20:31N 53°15' E 004°35'1413.5
2016-Jul-22 19:30N 53°03' E 004°23'1313.7
2016-Jul-22 18:32N 52°51' E 004°15'1313.3
2016-Jul-22 17:33N 52°41' E 004°00'1413.3
2016-Jul-22 16:31N 52°32' E 003°44'1313.1
2016-Jul-22 15:31N 52°20' E 003°33'1513.4
2016-Jul-22 14:24N 52°06' E 003°25'1112.7
2016-Jul-22 13:33N 51°55' E 003°23'1311.5
2016-Jul-22 12:27N 51°43' E 003°16'1011.6
2016-Jul-22 11:33N 51°34' E 003°24'1110.9
2016-Jul-22 10:34N 51°26' E 003°36'1111.1
2016-Jul-22 09:34N 51°21' E 003°52'10 9.9
2016-Jul-22 08:33N 51°22' E 004°07'6 6.3
2016-Jul-22 07:33N 51°21' E 004°17'7 3.2
2016-Jul-22 05:33N 51°15' E 004°22'0 0.0
2016-Jul-22 04:33N 51°15' E 004°22'0 0.0
2016-Jul-22 03:33N 51°15' E 004°22'0 0.0
2016-Jul-22 02:33N 51°15' E 004°22'0 0.0
2016-Jul-22 01:33N 51°15' E 004°22'0 0.0
2016-Jul-22 00:33N 51°15' E 004°22'0 0.0
2016-Jul-21 23:33N 51°15' E 004°22'0 0.0
2016-Jul-21 22:33N 51°15' E 004°22'0 0.0
2016-Jul-21 21:33N 51°15' E 004°22'0 0.0
2016-Jul-21 20:33N 51°15' E 004°22'0 0.0
2016-Jul-21 19:33N 51°15' E 004°22'0 0.0
2016-Jul-21 18:33N 51°15' E 004°22'0 0.0
2016-Jul-21 17:33N 51°15' E 004°22'0 0.0
2016-Jul-21 16:33N 51°15' E 004°22'0 0.0
2016-Jul-21 15:33N 51°15' E 004°22'0 0.0
2016-Jul-21 14:33N 51°15' E 004°22'0 0.0
2016-Jul-21 13:33N 51°15' E 004°22'0 0.0
2016-Jul-21 12:33N 51°15' E 004°22'0 0.0
2016-Jul-21 11:33N 51°15' E 004°22'0 0.0
2016-Jul-21 10:33N 51°15' E 004°22'0 0.0
2016-Jul-21 09:33N 51°15' E 004°22'0 0.0
2016-Jul-21 08:33N 51°15' E 004°22'0 0.0
2016-Jul-21 07:33N 51°15' E 004°22'0 0.1
2016-Jul-21 06:34N 51°15' E 004°22'6 6.4
2016-Jul-21 05:33N 51°21' E 004°17'0 0.0
2016-Jul-21 04:33N 51°21' E 004°17'5 4.8
2016-Jul-21 03:33N 51°24' E 004°11'9 9.1
2016-Jul-21 02:34N 51°23' E 003°57'1111.5
2016-Jul-21 01:34N 51°26' E 003°39'1111.4
2016-Jul-21 00:33N 51°33' E 003°25'1312.2
2016-Jul-20 23:28N 51°45' E 003°15'1010.9
2016-Jul-20 22:31N 51°55' E 003°18'7612.0
2016-Jul-20 16:13N 53°04' E 004°12'912.2
2016-Jul-20 15:30N 53°09' E 004°23'3012.9
2016-Jul-20 13:10N 53°33' E 004°55'915.5
2016-Jul-20 12:33N 53°36' E 005°10'1514.9
2016-Jul-20 11:33N 53°40' E 005°34'1414.2
2016-Jul-20 10:33N 53°45' E 005°56'1313.5
2016-Jul-20 09:33N 53°49' E 006°18'1312.6
2016-Jul-20 08:33N 53°53' E 006°39'1312.9
2016-Jul-20 07:33N 53°56' E 007°00'1313.3
2016-Jul-20 06:34N 53°59' E 007°22'1414.4
2016-Jul-20 05:34N 54°01' E 007°46'1515.0
2016-Jul-20 04:32N 54°00' E 008°12'1616.0
2016-Jul-20 03:34N 53°57' E 008°38'1313.2
2016-Jul-20 02:33N 53°51' E 008°58'7 6.9
2016-Jul-20 01:34N 53°54' E 009°09'4 3.7
2016-Jul-20 00:33N 53°56' E 009°13'8 8.4
2016-Jul-19 23:33N 54°04' E 009°19'7 6.3
2016-Jul-19 22:31N 54°10' E 009°24'20 6.9
2016-Jul-19 19:33N 54°21' E 009°53'6 6.1
2016-Jul-19 18:33N 54°22' E 010°03'2 2.5
2016-Jul-19 17:34N 54°22' E 010°08'0 0.0
2016-Jul-19 16:33N 54°22' E 010°08'0 0.0
2016-Jul-19 15:34N 54°22' E 010°08'1 0.5
2016-Jul-19 14:33N 54°22' E 010°08'1 1.2
2016-Jul-19 13:34N 54°22' E 010°10'11 9.6
2016-Jul-19 12:27N 54°31' E 010°22'1213.5
2016-Jul-19 11:33N 54°35' E 010°41'1313.4
2016-Jul-19 10:34N 54°36' E 011°04'1413.9
2016-Jul-19 09:34N 54°32' E 011°27'1413.8
2016-Jul-19 08:33N 54°27' E 011°49'1312.9
2016-Jul-19 07:34N 54°29' E 012°11'1313.2
2016-Jul-19 06:33N 54°40' E 012°23'6811.1
2016-Jul-19 00:25N 54°14' E 014°12'1112.9
2016-Jul-18 23:34N 54°03' E 014°15'10 9.8
2016-Jul-18 22:34N 53°54' E 014°15'10 9.5
2016-Jul-18 21:34N 53°46' E 014°24'1111.0
2016-Jul-18 20:33N 53°37' E 014°35'9 9.1
2016-Jul-18 19:34N 53°28' E 014°36'3 2.7
2016-Jul-18 18:28N 53°25' E 014°36'0 0.0
2016-Jul-18 17:34N 53°25' E 014°36'0 0.0
2016-Jul-18 16:33N 53°25' E 014°36'0 0.0
2016-Jul-18 15:33N 53°25' E 014°36'0 0.0
2016-Jul-18 14:33N 53°25' E 014°36'0 0.0
2016-Jul-18 13:33N 53°25' E 014°36'0 0.0
2016-Jul-18 12:33N 53°25' E 014°36'0 0.0
2016-Jul-18 11:33N 53°25' E 014°36'0 0.0
2016-Jul-18 10:33N 53°25' E 014°36'3 3.2
2016-Jul-18 09:33N 53°28' E 014°36'9 9.0
2016-Jul-18 08:33N 53°37' E 014°35'1211.7
2016-Jul-18 07:33N 53°46' E 014°23'9 9.1
2016-Jul-18 06:33N 53°54' E 014°15'9 9.4
2016-Jul-18 05:33N 54°03' E 014°14'1212.2
2016-Jul-18 04:33N 54°15' E 014°09'3710.7
2016-Jul-18 01:05N 54°40' E 014°55'713.8
2016-Jul-18 00:33N 54°45' E 015°04'1413.7
2016-Jul-17 23:32N 54°55' E 015°21'1313.6
2016-Jul-17 22:33N 55°06' E 015°36'1413.9
2016-Jul-17 21:33N 55°18' E 015°48'  
2016-Jul-13 13:32N 55°45' E 015°46'1513.8
2016-Jul-13 12:25N 55°37' E 015°22'1113.1
2016-Jul-13 11:33N 55°32' E 015°04'1313.3
2016-Jul-13 10:33N 55°26' E 014°44'  
Track history (hours):
 
Tides and Currents Weather Stations Pressure Air Temp Water Temp Dewpoint Dewpoint Depression Visibility Wind Speed Wind Dir Waves Ship Positions

Amarant

Last reported at 2016-Jul-23 10:23 UTC. Time now 2016-Jul-23 11:16 UTC.
Position N 55°40' E 006°45'.

Length 123 m; draft 5.3 m.

Type: Tanker. MMSI: 255623000.

Date/timePositionNaut miles runAvg speedWind from/ knotsBaromVisibWave heightAir tempDewpointWater temp
2016-Jul-23 10:23N 55°40' E 006°45'8111.8
2016-Jul-23 03:33N 54°31' E 005°32'1211.5
2016-Jul-23 02:33N 54°21' E 005°22'1211.6
2016-Jul-23 01:33N 54°11' E 005°12'1211.7
2016-Jul-23 00:33N 54°00' E 005°05'1211.8
2016-Jul-22 23:31N 53°49' E 004°58'1312.1
2016-Jul-22 22:28N 53°37' E 004°50'1611.7
2016-Jul-22 21:05N 53°22' E 004°40'813.5
2016-Jul-22 20:31N 53°15' E 004°35'1413.5
2016-Jul-22 19:30N 53°03' E 004°23'1313.7
2016-Jul-22 18:32N 52°51' E 004°15'1313.3
2016-Jul-22 17:33N 52°41' E 004°00'1413.3
2016-Jul-22 16:31N 52°32' E 003°44'1313.1
2016-Jul-22 15:31N 52°20' E 003°33'1513.4
2016-Jul-22 14:24N 52°06' E 003°25'1112.7
2016-Jul-22 13:33N 51°55' E 003°23'1311.5
2016-Jul-22 12:27N 51°43' E 003°16'1011.6
2016-Jul-22 11:33N 51°34' E 003°24'1110.9
2016-Jul-22 10:34N 51°26' E 003°36'1111.1
2016-Jul-22 09:34N 51°21' E 003°52'10 9.9
2016-Jul-22 08:33N 51°22' E 004°07'6 6.3
2016-Jul-22 07:33N 51°21' E 004°17'7 3.2
2016-Jul-22 05:33N 51°15' E 004°22'0 0.0
2016-Jul-22 04:33N 51°15' E 004°22'0 0.0
2016-Jul-22 03:33N 51°15' E 004°22'0 0.0
2016-Jul-22 02:33N 51°15' E 004°22'0 0.0
2016-Jul-22 01:33N 51°15' E 004°22'0 0.0
2016-Jul-22 00:33N 51°15' E 004°22'0 0.0
2016-Jul-21 23:33N 51°15' E 004°22'0 0.0
2016-Jul-21 22:33N 51°15' E 004°22'0 0.0
2016-Jul-21 21:33N 51°15' E 004°22'0 0.0
2016-Jul-21 20:33N 51°15' E 004°22'0 0.0
2016-Jul-21 19:33N 51°15' E 004°22'0 0.0
2016-Jul-21 18:33N 51°15' E 004°22'0 0.0
2016-Jul-21 17:33N 51°15' E 004°22'0 0.0
2016-Jul-21 16:33N 51°15' E 004°22'0 0.0
2016-Jul-21 15:33N 51°15' E 004°22'0 0.0
2016-Jul-21 14:33N 51°15' E 004°22'0 0.0
2016-Jul-21 13:33N 51°15' E 004°22'0 0.0
2016-Jul-21 12:33N 51°15' E 004°22'0 0.0
2016-Jul-21 11:33N 51°15' E 004°22'0 0.0
2016-Jul-21 10:33N 51°15' E 004°22'0 0.0
2016-Jul-21 09:33N 51°15' E 004°22'0 0.0
2016-Jul-21 08:33N 51°15' E 004°22'0 0.0
2016-Jul-21 07:33N 51°15' E 004°22'0 0.1
2016-Jul-21 06:34N 51°15' E 004°22'6 6.4
2016-Jul-21 05:33N 51°21' E 004°17'0 0.0
2016-Jul-21 04:33N 51°21' E 004°17'5 4.8
2016-Jul-21 03:33N 51°24' E 004°11'9 9.1
2016-Jul-21 02:34N 51°23' E 003°57'1111.5
2016-Jul-21 01:34N 51°26' E 003°39'1111.4
2016-Jul-21 00:33N 51°33' E 003°25'1312.2
2016-Jul-20 23:28N 51°45' E 003°15'1010.9
2016-Jul-20 22:31N 51°55' E 003°18'7612.0
2016-Jul-20 16:13N 53°04' E 004°12'912.2
2016-Jul-20 15:30N 53°09' E 004°23'3012.9
2016-Jul-20 13:10N 53°33' E 004°55'915.5
2016-Jul-20 12:33N 53°36' E 005°10'1514.9
2016-Jul-20 11:33N 53°40' E 005°34'1414.2
2016-Jul-20 10:33N 53°45' E 005°56'1313.5
2016-Jul-20 09:33N 53°49' E 006°18'1312.6
2016-Jul-20 08:33N 53°53' E 006°39'1312.9
2016-Jul-20 07:33N 53°56' E 007°00'1313.3
2016-Jul-20 06:34N 53°59' E 007°22'1414.4
2016-Jul-20 05:34N 54°01' E 007°46'1515.0
2016-Jul-20 04:32N 54°00' E 008°12'1616.0
2016-Jul-20 03:34N 53°57' E 008°38'1313.2
2016-Jul-20 02:33N 53°51' E 008°58'7 6.9
2016-Jul-20 01:34N 53°54' E 009°09'4 3.7
2016-Jul-20 00:33N 53°56' E 009°13'8 8.4
2016-Jul-19 23:33N 54°04' E 009°19'7 6.3
2016-Jul-19 22:31N 54°10' E 009°24'20 6.9
2016-Jul-19 19:33N 54°21' E 009°53'6 6.1
2016-Jul-19 18:33N 54°22' E 010°03'2 2.5
2016-Jul-19 17:34N 54°22' E 010°08'0 0.0
2016-Jul-19 16:33N 54°22' E 010°08'0 0.0
2016-Jul-19 15:34N 54°22' E 010°08'1 0.5
2016-Jul-19 14:33N 54°22' E 010°08'1 1.2
2016-Jul-19 13:34N 54°22' E 010°10'11 9.6
2016-Jul-19 12:27N 54°31' E 010°22'1213.5
2016-Jul-19 11:33N 54°35' E 010°41'1313.4
2016-Jul-19 10:34N 54°36' E 011°04'1413.9
2016-Jul-19 09:34N 54°32' E 011°27'1413.8
2016-Jul-19 08:33N 54°27' E 011°49'1312.9
2016-Jul-19 07:34N 54°29' E 012°11'1313.2
2016-Jul-19 06:33N 54°40' E 012°23'6811.1
2016-Jul-19 00:25N 54°14' E 014°12'1112.9
2016-Jul-18 23:34N 54°03' E 014°15'10 9.8
2016-Jul-18 22:34N 53°54' E 014°15'10 9.5
2016-Jul-18 21:34N 53°46' E 014°24'1111.0
2016-Jul-18 20:33N 53°37' E 014°35'9 9.1
2016-Jul-18 19:34N 53°28' E 014°36'3 2.7
2016-Jul-18 18:28N 53°25' E 014°36'0 0.0
2016-Jul-18 17:34N 53°25' E 014°36'0 0.0
2016-Jul-18 16:33N 53°25' E 014°36'0 0.0
2016-Jul-18 15:33N 53°25' E 014°36'0 0.0
2016-Jul-18 14:33N 53°25' E 014°36'0 0.0
2016-Jul-18 13:33N 53°25' E 014°36'0 0.0
2016-Jul-18 12:33N 53°25' E 014°36'0 0.0
2016-Jul-18 11:33N 53°25' E 014°36'0 0.0
2016-Jul-18 10:33N 53°25' E 014°36'3 3.2
2016-Jul-18 09:33N 53°28' E 014°36'9 9.0
2016-Jul-18 08:33N 53°37' E 014°35'1211.7
2016-Jul-18 07:33N 53°46' E 014°23'9 9.1
2016-Jul-18 06:33N 53°54' E 014°15'9 9.4
2016-Jul-18 05:33N 54°03' E 014°14'1212.2
2016-Jul-18 04:33N 54°15' E 014°09'3710.7
2016-Jul-18 01:05N 54°40' E 014°55'713.8
2016-Jul-18 00:33N 54°45' E 015°04'1413.7
2016-Jul-17 23:32N 54°55' E 015°21'1313.6
2016-Jul-17 22:33N 55°06' E 015°36'1413.9
2016-Jul-17 21:33N 55°18' E 015°48'  
2016-Jul-13 13:32N 55°45' E 015°46'1513.8
2016-Jul-13 12:25N 55°37' E 015°22'1113.1
2016-Jul-13 11:33N 55°32' E 015°04'1313.3
2016-Jul-13 10:33N 55°26' E 014°44'  

Dump ship's entire track history